Time;durP1;ratioP1;P1;durP2;ratioP2;P2;SDS_P1;SDS_P2;PMS_P1;PMS_P2;Temp;Humidity;BMP_temperature;BMP_pressure;BME280_temperature;BME280_humidity;BME280_pressure;Samples;Min_cycle;Max_cycle;Signal;HPM_P1;HPM_P2
2022/03/19 00:00:46;;;;;;;9.70;6.00;;;6.20;99.90;;;;;;5107267;28;20208;-52
2022/03/19 00:03:30;;;;;;;9.23;5.43;;;6.10;99.90;;;;;;5112935;27;20183;-58
2022/03/19 00:06:14;;;;;;;12.70;5.77;;;6.10;99.90;;;;;;5124113;27;20191;-53
2022/03/19 00:08:58;;;;;;;10.73;6.70;;;6.10;99.90;;;;;;5127732;27;20230;-53
2022/03/19 00:11:44;;;;;;;11.10;5.90;;;6.00;99.90;;;;;;5123494;27;20231;-58
2022/03/19 00:14:28;;;;;;;9.20;6.10;;;5.90;99.90;;;;;;5132956;27;20214;-52
2022/03/19 00:17:14;;;;;;;8.33;5.40;;;5.80;99.90;;;;;;5135786;27;20188;-50
2022/03/19 00:19:59;;;;;;;9.20;4.87;;;5.70;99.90;;;;;;5134753;27;20194;-51
2022/03/19 00:22:44;;;;;;;9.83;6.67;;;5.70;99.90;;;;;;5120408;27;20235;-56
2022/03/19 00:25:28;;;;;;;10.33;6.23;;;5.70;99.90;;;;;;5128406;27;20187;-52
2022/03/19 00:28:15;;;;;;;7.93;5.90;;;5.60;99.90;;;;;;5124436;27;20223;-50
2022/03/19 00:30:59;;;;;;;9.00;5.37;;;5.60;99.90;;;;;;5124607;27;20304;-49
2022/03/19 00:33:44;;;;;;;10.40;6.23;;;5.60;99.90;;;;;;5127027;27;20232;-54
2022/03/19 00:36:30;;;;;;;10.67;5.90;;;5.50;99.90;;;;;;5131569;27;20191;-50
2022/03/19 00:39:15;;;;;;;14.63;6.17;;;5.40;99.90;;;;;;5123306;27;20341;-52
2022/03/19 00:41:59;;;;;;;9.73;6.33;;;5.50;99.90;;;;;;5130832;27;20236;-50
2022/03/19 00:44:44;;;;;;;9.40;5.90;;;5.50;99.90;;;;;;5131157;27;20202;-49
2022/03/19 00:47:28;;;;;;;7.43;5.87;;;5.50;99.90;;;;;;5135164;27;20307;-55
2022/03/19 00:50:13;;;;;;;8.00;5.40;;;5.50;99.90;;;;;;5133020;27;20242;-59
2022/03/19 00:52:59;;;;;;;9.00;5.83;;;5.60;99.90;;;;;;5135745;27;20218;-59
2022/03/19 00:55:43;;;;;;;12.37;5.73;;;5.80;99.90;;;;;;5132040;27;20206;-55
2022/03/19 00:58:28;;;;;;;11.27;5.47;;;5.80;99.90;;;;;;5124988;27;20239;-57
2022/03/19 01:01:13;;;;;;;11.23;5.30;;;5.80;99.90;;;;;;5135371;27;20267;-54
2022/03/19 01:03:59;;;;;;;9.70;5.13;;;5.70;99.90;;;;;;5131062;27;20186;-61
2022/03/19 01:06:43;;;;;;;10.00;4.97;;;5.80;99.90;;;;;;5133408;27;20266;-56
2022/03/19 01:09:29;;;;;;;14.73;6.03;;;5.80;99.90;;;;;;5134640;27;20267;-54
2022/03/19 01:12:14;;;;;;;10.33;6.07;;;5.80;99.90;;;;;;5134494;27;20184;-54
2022/03/19 01:14:58;;;;;;;5.00;4.20;;;5.70;99.90;;;;;;5131395;27;20183;-51
2022/03/19 01:17:44;;;;;;;9.97;4.97;;;5.70;99.90;;;;;;5130220;27;20195;-54
2022/03/19 01:20:29;;;;;;;6.80;4.53;;;5.70;99.90;;;;;;5130719;27;20188;-56
2022/03/19 01:23:13;;;;;;;12.13;6.77;;;5.70;99.90;;;;;;5134044;27;20191;-55
2022/03/19 01:25:58;;;;;;;9.00;4.83;;;5.60;99.90;;;;;;5140784;27;20267;-60
2022/03/19 01:28:42;;;;;;;15.97;6.30;;;5.50;99.90;;;;;;5129195;27;20236;-55
2022/03/19 01:31:26;;;;;;;15.00;6.43;;;5.50;99.90;;;;;;5136439;27;20220;-52
2022/03/19 01:34:11;;;;;;;9.17;5.83;;;5.40;99.90;;;;;;5136028;27;20186;-54
2022/03/19 01:36:56;;;;;;;8.13;5.10;;;5.40;99.90;;;;;;5136585;27;20186;-47
2022/03/19 01:39:41;;;;;;;12.63;6.17;;;5.30;99.90;;;;;;5135758;27;20305;-54
2022/03/19 01:42:31;;;;;;;16.67;7.57;;;5.20;99.90;;;;;;5133848;27;20198;-56
2022/03/19 01:45:21;;;;;;;9.43;6.03;;;5.20;99.90;;;;;;5131282;27;20269;-53
2022/03/19 01:48:07;;;;;;;10.03;6.40;;;5.10;99.90;;;;;;5129551;27;20196;-49
2022/03/19 01:50:52;;;;;;;8.50;4.93;;;5.20;99.90;;;;;;5126575;27;20343;-52
2022/03/19 01:53:36;;;;;;;10.33;5.47;;;5.30;99.90;;;;;;5126967;27;20199;-59
2022/03/19 01:56:24;;;;;;;13.00;6.23;;;5.30;99.90;;;;;;5128955;27;20191;-51
2022/03/19 01:59:08;;;;;;;8.97;4.93;;;5.20;99.90;;;;;;5125771;27;20249;-62
2022/03/19 02:01:53;;;;;;;8.17;5.97;;;5.20;99.90;;;;;;5127413;27;20188;-48
2022/03/19 02:04:39;;;;;;;8.27;5.90;;;5.20;99.90;;;;;;5128951;27;20200;-50
2022/03/19 02:07:24;;;;;;;11.20;5.27;;;5.10;99.90;;;;;;5125206;27;20235;-48
2022/03/19 02:10:09;;;;;;;8.67;5.83;;;5.00;99.90;;;;;;5128428;27;20214;-50
2022/03/19 02:12:55;;;;;;;9.27;6.27;;;4.90;99.90;;;;;;5127407;27;20207;-60
2022/03/19 02:15:40;;;;;;;13.10;7.23;;;5.00;99.90;;;;;;5124919;27;20256;-50
2022/03/19 02:18:26;;;;;;;23.53;11.90;;;4.90;99.90;;;;;;5128482;27;20211;-56
2022/03/19 02:21:10;;;;;;;12.20;6.27;;;5.00;99.90;;;;;;5126171;27;20205;-52
2022/03/19 02:27:02;;;;;;;8.83;4.77;;;4.90;99.90;;;;;;5129189;27;20195;-54
2022/03/19 02:29:49;;;;;;;9.43;4.73;;;5.10;99.90;;;;;;5125685;27;20260;-56
2022/03/19 02:32:34;;;;;;;12.37;5.73;;;5.10;99.90;;;;;;5125196;27;20215;-49
2022/03/19 02:35:19;;;;;;;7.23;5.27;;;5.20;99.90;;;;;;5128557;27;20279;-52
2022/03/19 02:38:03;;;;;;;8.23;5.43;;;5.30;99.90;;;;;;5124534;27;20191;-51
2022/03/19 02:40:47;;;;;;;7.03;3.73;;;5.20;99.90;;;;;;5126834;27;20223;-50
2022/03/19 02:43:32;;;;;;;11.87;5.03;;;5.10;99.90;;;;;;5128102;27;20199;-53
2022/03/19 02:46:16;;;;;;;10.03;5.60;;;5.10;99.90;;;;;;5124154;27;20241;-51
2022/03/19 02:49:01;;;;;;;7.23;4.20;;;5.10;99.90;;;;;;5128151;27;20258;-49
2022/03/19 02:51:48;;;;;;;9.10;6.40;;;5.00;99.90;;;;;;5126729;27;20297;-59
2022/03/19 02:54:33;;;;;;;7.50;4.67;;;4.90;99.90;;;;;;5124344;27;20267;-57
2022/03/19 02:57:17;;;;;;;18.00;8.10;;;4.80;99.90;;;;;;5127419;27;20216;-54
2022/03/19 03:00:01;;;;;;;8.53;4.57;;;4.80;99.90;;;;;;5124894;27;20207;-60
2022/03/19 03:02:45;;;;;;;9.00;5.27;;;4.90;99.90;;;;;;5125134;27;20215;-58
2022/03/19 03:05:29;;;;;;;7.60;4.07;;;4.90;99.90;;;;;;5127809;27;20192;-52
2022/03/19 03:08:13;;;;;;;19.20;11.70;;;4.90;99.90;;;;;;5124288;27;20227;-49
2022/03/19 03:10:59;;;;;;;14.87;8.60;;;4.90;99.90;;;;;;5126369;27;20270;-56
2022/03/19 03:13:44;;;;;;;9.37;5.20;;;4.80;99.90;;;;;;5127805;27;20195;-58
2022/03/19 03:16:30;;;;;;;8.47;4.60;;;5.00;99.90;;;;;;5124062;27;20241;-58
2022/03/19 03:19:17;;;;;;;10.50;5.80;;;4.90;99.90;;;;;;5126719;27;20188;-50
2022/03/19 03:22:02;;;;;;;14.10;6.13;;;5.00;99.90;;;;;;5126418;27;20194;-56
2022/03/19 03:24:48;;;;;;;9.43;5.07;;;5.00;99.90;;;;;;5123861;27;20195;-48
2022/03/19 03:27:32;;;;;;;9.90;5.40;;;4.90;99.90;;;;;;5126623;27;20261;-47
2022/03/19 03:30:18;;;;;;;6.40;4.80;;;5.00;99.90;;;;;;5125069;27;20234;-49
2022/03/19 03:33:03;;;;;;;9.57;5.90;;;5.00;99.90;;;;;;5124304;27;20199;-56
2022/03/19 03:35:49;;;;;;;9.13;4.57;;;5.00;99.90;;;;;;5127267;27;20196;-52
2022/03/19 03:38:34;;;;;;;9.27;5.00;;;5.10;99.90;;;;;;5124168;27;20256;-51
2022/03/19 03:41:18;;;;;;;24.23;10.13;;;5.00;99.90;;;;;;5125633;27;20203;-50
2022/03/19 03:44:03;;;;;;;14.97;7.00;;;5.10;99.90;;;;;;5126369;27;20203;-48
2022/03/19 03:46:48;;;;;;;11.87;6.17;;;4.90;99.90;;;;;;5123624;27;20292;-52
2022/03/19 03:49:33;;;;;;;11.53;6.37;;;4.90;99.90;;;;;;5126388;27;20192;-51
2022/03/19 03:52:17;;;;;;;7.40;4.37;;;5.00;99.90;;;;;;5125797;27;20244;-52
2022/03/19 03:55:06;;;;;;;13.73;5.43;;;4.80;99.90;;;;;;5123251;27;20203;-53
2022/03/19 03:57:50;;;;;;;8.83;5.60;;;4.90;99.90;;;;;;5126745;27;20199;-55
2022/03/19 04:00:35;;;;;;;10.33;5.53;;;5.10;99.90;;;;;;5124701;27;20191;-55
2022/03/19 04:03:20;;;;;;;18.60;5.90;;;5.10;99.90;;;;;;5123888;27;20241;-53
2022/03/19 04:06:05;;;;;;;10.03;5.93;;;5.00;99.90;;;;;;5127054;27;20207;-50
2022/03/19 04:08:50;;;;;;;9.20;5.27;;;4.80;99.90;;;;;;5123175;27;20203;-51
2022/03/19 04:11:35;;;;;;;10.87;5.50;;;4.80;99.90;;;;;;5125025;27;20737;-52
2022/03/19 04:14:20;;;;;;;12.07;5.43;;;4.90;99.90;;;;;;5126516;27;20191;-50
2022/03/19 04:17:04;;;;;;;6.80;5.27;;;4.90;99.90;;;;;;5123302;27;20257;-49
2022/03/19 04:19:48;;;;;;;7.93;5.40;;;4.60;99.90;;;;;;5126645;27;20207;-53
2022/03/19 04:22:42;;;;;;;9.23;5.67;;;4.60;99.90;;;;;;5125438;27;20199;-56
2022/03/19 04:25:27;;;;;;;26.03;12.73;;;4.60;99.90;;;;;;5122433;27;20229;-53
2022/03/19 04:28:12;;;;;;;9.13;5.27;;;4.50;99.90;;;;;;5125717;27;20245;-49
2022/03/19 04:30:56;;;;;;;12.67;6.80;;;4.40;99.90;;;;;;5124538;27;20249;-54
2022/03/19 04:33:40;;;;;;;12.20;6.47;;;4.40;99.90;;;;;;5122932;27;20195;-53
2022/03/19 04:36:31;;;;;;;12.90;6.60;;;4.50;99.90;;;;;;5126259;27;20196;-50
2022/03/19 04:39:15;;;;;;;16.70;5.80;;;4.50;99.90;;;;;;5123006;27;20231;-51
2022/03/19 04:42:00;;;;;;;9.23;6.37;;;4.40;99.90;;;;;;5121443;27;20236;-53
2022/03/19 04:44:45;;;;;;;10.17;6.27;;;4.30;99.90;;;;;;5123992;28;20269;-48
2022/03/19 04:47:30;;;;;;;48.67;23.53;;;4.20;99.90;;;;;;5120233;28;20213;-50
2022/03/19 04:50:14;;;;;;;26.23;13.33;;;4.20;99.90;;;;;;5126246;27;20281;-52
2022/03/19 04:52:59;;;;;;;11.63;8.00;;;4.10;99.90;;;;;;5136850;27;20252;-51
2022/03/19 04:55:43;;;;;;;12.23;6.90;;;4.10;99.90;;;;;;5132117;27;20195;-49
2022/03/19 04:58:27;;;;;;;14.77;7.97;;;3.90;99.90;;;;;;5130071;27;20271;-49
2022/03/19 05:01:11;;;;;;;13.97;6.53;;;3.80;99.90;;;;;;5125033;27;20233;-53
2022/03/19 05:03:57;;;;;;;7.93;5.80;;;3.60;99.90;;;;;;5123360;27;20191;-55
2022/03/19 05:06:41;;;;;;;10.97;6.57;;;3.60;99.90;;;;;;5128647;27;20191;-56
2022/03/19 05:12:29;;;;;;;12.67;7.70;;;3.40;99.90;;;;;;5125868;27;20223;-55
2022/03/19 05:15:15;;;;;;;10.53;6.40;;;3.40;99.90;;;;;;5126728;27;20268;-58
2022/03/19 05:18:00;;;;;;;13.20;7.53;;;3.30;99.90;;;;;;5123682;27;20195;-55
2022/03/19 05:20:44;;;;;;;12.27;7.70;;;3.20;99.90;;;;;;5126043;27;20232;-53
2022/03/19 05:23:29;;;;;;;8.93;6.40;;;3.30;99.90;;;;;;5128438;27;20219;-59
2022/03/19 05:26:13;;;;;;;14.43;6.33;;;3.20;99.90;;;;;;5121613;27;20187;-53
2022/03/19 05:28:57;;;;;;;11.90;5.73;;;3.20;99.90;;;;;;5126286;27;20260;-51
2022/03/19 05:31:42;;;;;;;10.93;6.37;;;3.10;99.90;;;;;;5126805;27;20227;-53
2022/03/19 05:34:31;;;;;;;16.33;7.30;;;3.10;99.90;;;;;;5123800;27;20191;-48
2022/03/19 05:37:16;;;;;;;14.57;7.63;;;3.10;99.90;;;;;;5126489;27;20195;-49
2022/03/19 05:40:04;;;;;;;9.50;6.67;;;3.10;99.90;;;;;;5125014;27;20224;-52
2022/03/19 05:42:50;;;;;;;15.13;8.53;;;3.10;99.90;;;;;;5123845;27;20188;-51
2022/03/19 05:45:34;;;;;;;14.80;6.80;;;3.30;99.90;;;;;;5125828;27;20269;-52
2022/03/19 05:48:18;;;;;;;11.33;5.97;;;3.30;99.90;;;;;;5123843;27;20183;-51
2022/03/19 05:51:05;;;;;;;13.93;6.63;;;3.40;99.90;;;;;;5123584;27;20227;-57
2022/03/19 05:53:49;;;;;;;10.03;5.63;;;3.40;99.90;;;;;;5127434;27;20195;-55
2022/03/19 05:56:34;;;;;;;10.93;6.20;;;3.50;99.90;;;;;;5121004;27;20260;-54
2022/03/19 05:59:19;;;;;;;13.27;6.73;;;3.60;99.90;;;;;;5127309;27;20283;-53
2022/03/19 06:02:05;;;;;;;12.10;7.50;;;3.60;99.90;;;;;;5126027;27;20275;-48
2022/03/19 06:04:50;;;;;;;12.03;6.70;;;3.60;99.90;;;;;;5123664;27;20587;-48
2022/03/19 06:07:34;;;;;;;9.73;6.37;;;3.50;99.90;;;;;;5124367;27;20288;-50
2022/03/19 06:10:20;;;;;;;12.70;8.03;;;3.60;99.90;;;;;;5124993;27;20240;-47
2022/03/19 06:13:04;;;;;;;18.13;7.93;;;3.40;99.90;;;;;;5123035;27;20249;-50
2022/03/19 06:15:49;;;;;;;11.27;6.40;;;3.40;99.90;;;;;;5127111;27;20183;-54
2022/03/19 06:18:33;;;;;;;10.47;6.60;;;3.60;99.90;;;;;;5125611;27;20253;-54
2022/03/19 06:21:19;;;;;;;11.57;6.50;;;3.80;99.90;;;;;;5125732;27;20199;-52
2022/03/19 06:24:05;;;;;;;11.10;7.37;;;3.80;99.90;;;;;;5128625;27;20246;-49
2022/03/19 06:26:51;;;;;;;11.13;6.30;;;3.80;99.90;;;;;;5123416;27;20204;-55
2022/03/19 06:29:36;;;;;;;10.07;6.77;;;3.90;99.90;;;;;;5127179;27;20191;-53
2022/03/19 06:32:21;;;;;;;9.27;5.80;;;4.00;99.90;;;;;;5127958;27;20191;-51
2022/03/19 06:35:06;;;;;;;12.27;6.77;;;4.10;99.90;;;;;;5123997;27;20196;-56
2022/03/19 06:37:50;;;;;;;10.63;5.10;;;4.00;99.90;;;;;;5127773;27;20199;-53
2022/03/19 06:40:35;;;;;;;12.33;6.00;;;4.00;99.90;;;;;;5126852;27;20311;-57
2022/03/19 06:43:20;;;;;;;10.00;6.27;;;4.00;99.90;;;;;;5123501;27;20211;-52
2022/03/19 06:46:05;;;;;;;11.70;5.73;;;4.10;99.90;;;;;;5128098;27;20328;-55
2022/03/19 06:48:50;;;;;;;11.20;6.13;;;4.00;99.90;;;;;;5125044;27;20253;-57
2022/03/19 06:51:36;;;;;;;11.30;5.67;;;4.00;99.90;;;;;;5124719;27;20299;-58
2022/03/19 06:54:22;;;;;;;10.03;6.73;;;4.10;99.90;;;;;;5127390;27;20234;-52
2022/03/19 06:57:06;;;;;;;13.43;5.83;;;4.10;99.90;;;;;;5123789;27;20196;-56
2022/03/19 06:59:51;;;;;;;9.27;5.83;;;4.10;99.90;;;;;;5126128;27;20200;-57
2022/03/19 07:02:51;;;;;;;8.57;5.57;;;4.10;99.90;;;;;;5127401;27;20205;-49
2022/03/19 07:05:36;;;;;;;7.53;5.87;;;4.20;99.90;;;;;;5124035;27;20223;-58
2022/03/19 07:08:20;;;;;;;7.83;5.53;;;4.30;99.90;;;;;;5126945;27;20214;-49
2022/03/19 07:11:05;;;;;;;11.27;5.80;;;4.40;99.90;;;;;;5126847;27;20219;-52
2022/03/19 07:13:49;;;;;;;10.77;6.00;;;4.40;99.90;;;;;;5123457;27;20354;-50
2022/03/19 07:16:33;;;;;;;8.67;4.43;;;4.40;99.90;;;;;;5127364;27;20267;-49
2022/03/19 07:19:17;;;;;;;11.13;6.60;;;4.50;99.90;;;;;;5124865;27;20195;-55
2022/03/19 07:22:02;;;;;;;7.57;4.60;;;4.50;99.90;;;;;;5122970;27;20658;-58
2022/03/19 07:24:46;;;;;;;9.03;5.53;;;4.50;99.90;;;;;;5127286;27;20235;-55
2022/03/19 07:27:30;;;;;;;8.27;6.03;;;4.60;99.90;;;;;;5123476;27;20190;-58
2022/03/19 07:30:14;;;;;;;7.40;4.93;;;4.60;99.90;;;;;;5124991;27;20385;-57
2022/03/19 07:32:59;;;;;;;10.33;5.37;;;4.60;99.90;;;;;;5127086;27;20203;-59
2022/03/19 07:35:45;;;;;;;6.53;4.83;;;4.70;99.90;;;;;;5122600;27;20243;-56
2022/03/19 07:38:33;;;;;;;10.67;5.07;;;4.70;99.90;;;;;;5125960;27;20231;-57
2022/03/19 07:44:20;;;;;;;7.80;4.70;;;4.90;99.90;;;;;;5124111;27;20245;-56
2022/03/19 07:47:05;;;;;;;12.73;5.27;;;5.00;99.90;;;;;;5126298;27;20226;-51
2022/03/19 07:49:50;;;;;;;10.50;5.50;;;5.10;99.90;;;;;;5126218;27;20343;-55
2022/03/19 07:52:36;;;;;;;8.70;4.80;;;5.20;99.90;;;;;;5122282;27;20257;-50
2022/03/19 07:55:20;;;;;;;7.57;4.33;;;5.20;99.90;;;;;;5126238;27;20275;-50
2022/03/19 07:58:05;;;;;;;9.80;4.40;;;5.40;99.90;;;;;;5124180;27;20192;-55
2022/03/19 08:00:50;;;;;;;6.73;4.43;;;5.60;99.70;;;;;;5122778;27;20200;-58
2022/03/19 08:03:35;;;;;;;5.23;4.13;;;5.70;99.00;;;;;;5126101;27;20612;-56
2022/03/19 08:06:19;;;;;;;7.60;4.27;;;5.90;98.70;;;;;;5123180;27;20195;-60
2022/03/19 08:09:05;;;;;;;7.50;4.43;;;6.00;98.10;;;;;;5124559;27;20195;-59
2022/03/19 08:11:50;;;;;;;8.53;3.77;;;6.10;97.10;;;;;;5126022;27;20234;-58
2022/03/19 08:14:36;;;;;;;8.53;4.60;;;6.30;97.20;;;;;;5121589;27;20183;-57
2022/03/19 08:17:20;;;;;;;8.73;4.50;;;6.40;96.50;;;;;;5125274;27;20211;-59
2022/03/19 08:20:06;;;;;;;7.13;4.47;;;6.50;96.60;;;;;;5125598;27;20195;-54
2022/03/19 08:22:50;;;;;;;8.20;4.60;;;6.70;96.60;;;;;;5122156;27;20187;-55
2022/03/19 08:25:37;;;;;;;4.97;4.33;;;6.90;96.00;;;;;;5126196;27;20241;-58
2022/03/19 08:28:22;;;;;;;7.60;4.63;;;7.20;95.80;;;;;;5123908;27;20222;-57
2022/03/19 08:31:06;;;;;;;11.47;4.63;;;7.50;94.50;;;;;;5121376;27;20223;-53
2022/03/19 08:33:50;;;;;;;10.33;5.43;;;7.70;94.10;;;;;;5125775;27;20241;-53
2022/03/19 08:36:35;;;;;;;8.33;5.10;;;7.80;93.50;;;;;;5122465;27;20195;-56
2022/03/19 08:42:24;;;;;;;5.57;4.23;;;8.10;93.00;;;;;;5126190;27;20215;-57
2022/03/19 08:45:08;;;;;;;8.97;4.07;;;8.50;92.60;;;;;;5121604;27;20179;-53
2022/03/19 08:47:53;;;;;;;6.20;4.33;;;8.50;91.40;;;;;;5123965;28;20191;-60
2022/03/19 08:50:37;;;;;;;9.03;5.63;;;8.50;90.70;;;;;;5125930;28;20252;-56
2022/03/19 08:53:23;;;;;;;8.53;5.03;;;8.60;90.50;;;;;;5121364;28;20206;-59
2022/03/19 08:56:08;;;;;;;5.23;3.93;;;8.90;89.10;;;;;;5125223;28;20270;-52
2022/03/19 08:58:52;;;;;;;5.70;4.17;;;9.00;86.80;;;;;;5124922;28;20255;-61
2022/03/19 09:01:37;;;;;;;7.17;4.27;;;9.00;85.60;;;;;;5121321;28;20183;-60
2022/03/19 09:04:22;;;;;;;4.67;3.63;;;9.10;84.80;;;;;;5125698;28;20195;-53
2022/03/19 09:07:07;;;;;;;5.93;3.87;;;9.00;84.50;;;;;;5123424;28;20191;-64
2022/03/19 09:09:52;;;;;;;8.27;4.40;;;9.30;84.40;;;;;;5122157;28;20211;-57
2022/03/19 09:12:38;;;;;;;8.67;4.83;;;9.70;83.60;;;;;;5125426;28;20209;-55
2022/03/19 09:15:23;;;;;;;7.17;4.23;;;9.70;83.10;;;;;;5121706;28;20284;-55
2022/03/19 09:18:07;;;;;;;8.47;4.67;;;10.30;82.40;;;;;;5123591;28;20191;-57
2022/03/19 09:20:52;;;;;;;5.23;4.20;;;10.40;80.90;;;;;;5125016;28;20218;-58
2022/03/19 09:23:36;;;;;;;11.20;6.00;;;10.40;81.40;;;;;;5121040;28;20245;-50
2022/03/19 09:26:21;;;;;;;8.43;5.43;;;10.60;81.40;;;;;;5124838;28;20224;-51
2022/03/19 09:29:06;;;;;;;8.83;5.33;;;10.50;82.00;;;;;;5124374;28;20188;-61
2022/03/19 09:31:51;;;;;;;8.97;5.17;;;10.90;82.50;;;;;;5120280;28;20299;-52
2022/03/19 09:34:35;;;;;;;9.77;5.77;;;11.30;82.10;;;;;;5125064;28;20208;-53
2022/03/19 09:37:20;;;;;;;12.43;6.70;;;11.70;80.70;;;;;;5123074;28;20261;-58
2022/03/19 09:40:05;;;;;;;9.17;6.17;;;11.20;80.80;;;;;;5121984;28;20288;-56
2022/03/19 09:42:52;;;;;;;9.50;6.63;;;11.40;81.20;;;;;;5125627;27;20200;-54
2022/03/19 09:45:38;;;;;;;11.50;6.97;;;11.60;80.50;;;;;;5124940;27;20192;-55
2022/03/19 09:48:22;;;;;;;9.90;6.10;;;11.80;80.30;;;;;;5126870;27;20191;-54
2022/03/19 09:51:09;;;;;;;9.70;6.47;;;11.70;80.30;;;;;;5128523;27;20231;-57
2022/03/19 09:53:55;;;;;;;9.77;6.03;;;12.00;79.40;;;;;;5124868;27;20246;-57
2022/03/19 09:56:39;;;;;;;10.00;6.30;;;12.90;77.00;;;;;;5128170;27;20205;-53
2022/03/19 09:59:24;;;;;;;14.13;7.07;;;13.00;76.60;;;;;;5128069;27;20194;-60
2022/03/19 10:02:12;;;;;;;13.67;7.50;;;12.80;75.90;;;;;;5123671;27;20225;-57
2022/03/19 10:08:35;;;;;;;11.00;6.83;;;12.40;75.90;;;;;;5128902;27;20200;-55
2022/03/19 10:11:12;;;;;;;15.13;7.47;;;12.70;73.90;;;;;;5125518;27;20234;-50
2022/03/19 10:13:57;;;;;;;12.90;6.90;;;12.80;73.20;;;;;;5128628;27;20189;-53
2022/03/19 10:16:41;;;;;;;15.27;8.27;;;12.70;73.50;;;;;;5128090;27;20257;-53
2022/03/19 10:19:25;;;;;;;14.70;6.83;;;12.30;73.10;;;;;;5124449;27;20201;-57
2022/03/19 10:22:10;;;;;;;12.70;6.83;;;12.40;73.60;;;;;;5128400;27;20216;-56
2022/03/19 10:25:01;;;;;;;12.60;7.17;;;12.80;73.30;;;;;;5126145;27;20205;-54
2022/03/19 10:27:46;;;;;;;13.80;6.37;;;12.50;72.90;;;;;;5124241;27;20193;-49
2022/03/19 10:30:37;;;;;;;9.97;5.80;;;12.60;72.20;;;;;;5128217;27;20229;-57
2022/03/19 10:33:27;;;;;;;14.33;7.13;;;13.30;71.20;;;;;;5125321;27;20207;-58
2022/03/19 10:36:13;;;;;;;14.23;7.03;;;13.80;68.30;;;;;;5124791;27;20199;-54
2022/03/19 10:38:58;;;;;;;10.47;6.53;;;13.00;71.20;;;;;;5127775;27;20210;-56
2022/03/19 10:41:43;;;;;;;11.20;6.17;;;12.70;69.10;;;;;;5124120;27;20595;-60
2022/03/19 10:44:28;;;;;;;10.60;6.50;;;14.00;67.70;;;;;;5126055;27;20215;-58
2022/03/19 10:47:20;;;;;;;8.70;6.30;;;14.20;66.10;;;;;;5127607;27;20312;-59
2022/03/19 10:50:05;;;;;;;11.37;6.60;;;14.50;64.50;;;;;;5123055;27;20226;-57
2022/03/19 10:52:50;;;;;;;11.13;7.37;;;14.50;62.20;;;;;;5126788;27;20252;-59
2022/03/19 10:55:35;;;;;;;11.13;6.17;;;14.00;62.50;;;;;;5127346;27;20217;-57
2022/03/19 10:58:20;;;;;;;10.27;7.00;;;14.30;63.40;;;;;;5124273;27;20195;-51
2022/03/19 11:01:07;;;;;;;10.27;6.13;;;15.00;62.70;;;;;;5127809;27;20241;-57
2022/03/19 11:03:54;;;;;;;10.90;5.97;;;15.30;62.20;;;;;;5126547;27;20270;-61
2022/03/19 11:06:51;;;;;;;10.17;5.93;;;15.30;62.60;;;;;;5124433;27;20277;-56
2022/03/19 11:09:38;;;;;;;8.87;6.57;;;13.60;63.60;;;;;;5127824;27;20275;-54
2022/03/19 11:12:26;;;;;;;9.67;6.80;;;12.90;66.00;;;;;;5125518;27;20201;-57
2022/03/19 11:15:11;;;;;;;9.43;6.27;;;12.00;68.00;;;;;;5123139;27;20204;-57
2022/03/19 11:17:57;;;;;;;9.77;5.33;;;11.90;68.30;;;;;;5127075;27;20271;-57
2022/03/19 11:20:43;;;;;;;9.23;5.47;;;12.70;67.50;;;;;;5123409;27;20238;-57
2022/03/19 11:23:37;;;;;;;8.73;5.60;;;14.00;65.00;;;;;;5124683;27;20199;-54
2022/03/19 11:26:28;;;;;;;9.17;6.13;;;14.90;63.90;;;;;;5126658;27;20227;-59
2022/03/19 11:29:12;;;;;;;8.80;5.83;;;15.60;61.30;;;;;;5123071;27;20195;-59
2022/03/19 11:31:58;;;;;;;10.87;7.03;;;15.50;61.20;;;;;;5125035;27;20285;-58
2022/03/19 11:34:44;;;;;;;14.63;6.57;;;14.80;60.50;;;;;;5126793;27;20304;-56
2022/03/19 11:38:01;;;;;;;11.80;6.47;;;14.60;60.20;;;;;;5122945;27;20325;-55
2022/03/19 11:40:50;;;;;;;7.27;6.00;;;13.90;62.70;;;;;;5124029;27;20329;-51
2022/03/19 11:43:34;;;;;;;39.67;19.83;;;14.50;62.40;;;;;;5126842;27;20260;-58
2022/03/19 11:46:19;;;;;;;26.23;14.33;;;14.90;63.10;;;;;;5122816;27;20250;-59
2022/03/19 11:49:03;;;;;;;17.30;11.00;;;14.80;62.60;;;;;;5125558;27;20191;-50
2022/03/19 11:51:47;;;;;;;11.97;8.17;;;14.30;63.40;;;;;;5126116;27;20276;-57
2022/03/19 11:55:03;;;;;;;14.77;7.77;;;15.50;62.10;;;;;;5122305;27;20200;-55
2022/03/19 11:58:05;;;;;;;16.93;8.50;;;15.90;60.30;;;;;;5125007;27;20203;-55
2022/03/19 12:00:59;;;;;;;12.10;7.67;;;15.10;61.00;;;;;;5126446;27;20199;-54
2022/03/19 12:04:13;;;;;;;9.57;7.57;;;15.70;60.50;;;;;;5122368;27;20199;-61
2022/03/19 12:06:59;;;;;;;11.20;6.83;;;14.70;61.30;;;;;;5114843;27;20295;-60
2022/03/19 12:09:49;;;;;;;10.07;7.23;;;15.10;60.90;;;;;;5126254;27;20203;-58
2022/03/19 12:12:33;;;;;;;12.13;6.57;;;15.10;60.80;;;;;;5123135;27;20194;-61
2022/03/19 12:15:30;;;;;;;8.70;5.97;;;14.30;62.40;;;;;;5123709;27;20237;-58
2022/03/19 12:18:34;;;;;;;11.83;6.70;;;13.70;62.80;;;;;;5126636;27;20208;-53
2022/03/19 12:21:21;;;;;;;25.97;14.23;;;13.20;64.90;;;;;;5123176;27;20197;-62
2022/03/19 12:24:06;;;;;;;23.20;10.47;;;12.80;65.60;;;;;;5122899;27;20188;-59
2022/03/19 12:26:50;;;;;;;11.07;6.93;;;12.30;65.80;;;;;;5125647;27;20191;-52
2022/03/19 12:29:35;;;;;;;9.53;6.27;;;11.90;66.70;;;;;;5122001;27;20192;-54
2022/03/19 12:32:22;;;;;;;12.07;6.03;;;11.70;67.20;;;;;;5124648;27;20242;-59
2022/03/19 12:35:07;;;;;;;8.63;5.30;;;12.20;67.00;;;;;;5125768;27;20199;-47
2022/03/19 12:37:54;;;;;;;9.10;5.77;;;12.20;66.00;;;;;;5121999;27;20233;-47
2022/03/19 12:43:42;;;;;;;13.73;6.67;;;12.30;66.10;;;;;;5126863;27;20191;-54
2022/03/19 12:46:29;;;;;;;15.87;6.27;;;12.20;67.50;;;;;;5121335;27;20191;-49
2022/03/19 12:49:15;;;;;;;26.63;13.13;;;11.60;67.30;;;;;;5125592;28;20188;-51
2022/03/19 12:52:07;;;;;;;12.23;6.60;;;11.60;68.60;;;;;;5124226;28;20219;-55
2022/03/19 12:54:52;;;;;;;9.93;5.97;;;11.60;68.30;;;;;;5120789;28;20187;-54
2022/03/19 12:57:36;;;;;;;8.70;5.53;;;11.70;67.10;;;;;;5125944;28;20245;-58
2022/03/19 13:00:21;;;;;;;6.70;4.60;;;11.70;66.10;;;;;;5123777;28;20211;-53
2022/03/19 13:03:05;;;;;;;6.27;4.57;;;11.90;66.10;;;;;;5122033;28;20211;-52
2022/03/19 13:05:51;;;;;;;8.30;4.70;;;11.80;66.10;;;;;;5125992;28;20194;-56
2022/03/19 13:08:49;;;;;;;9.57;5.43;;;11.80;66.60;;;;;;5121010;28;20192;-51
2022/03/19 13:11:40;;;;;;;15.07;5.07;;;11.60;66.00;;;;;;5122234;28;20263;-59
2022/03/19 13:14:24;;;;;;;8.30;4.90;;;11.90;65.60;;;;;;5125468;28;20240;-57
2022/03/19 13:17:09;;;;;;;9.80;5.87;;;12.10;65.30;;;;;;5122153;27;20284;-56
2022/03/19 13:19:53;;;;;;;6.00;4.50;;;12.40;64.50;;;;;;5127890;27;20195;-51
2022/03/19 13:22:38;;;;;;;7.57;5.27;;;12.10;64.60;;;;;;5128929;27;20199;-54
2022/03/19 13:25:26;;;;;;;6.27;4.63;;;12.00;64.40;;;;;;5124548;27;20264;-48
2022/03/19 13:28:10;;;;;;;5.27;4.43;;;12.00;64.80;;;;;;5128852;27;20200;-51
2022/03/19 13:30:56;;;;;;;7.73;4.40;;;12.20;64.60;;;;;;5128505;27;20226;-56
2022/03/19 13:33:41;;;;;;;9.90;4.87;;;11.70;63.80;;;;;;5124671;27;20188;-57
2022/03/19 13:36:31;;;;;;;6.57;3.93;;;11.70;63.20;;;;;;5129376;27;20241;-51
2022/03/19 13:39:24;;;;;;;6.67;3.90;;;11.80;63.30;;;;;;5126963;27;20219;-55
2022/03/19 13:42:10;;;;;;;4.70;3.50;;;12.00;63.00;;;;;;5124799;27;20192;-51
2022/03/19 13:45:13;;;;;;;6.40;3.77;;;12.30;62.90;;;;;;5129320;27;20277;-56
2022/03/19 13:48:05;;;;;;;6.30;4.10;;;12.50;61.80;;;;;;5127923;27;20254;-56
2022/03/19 13:51:01;;;;;;;5.23;3.77;;;12.40;62.60;;;;;;5125129;27;20615;-52
2022/03/19 13:53:52;;;;;;;4.53;3.50;;;12.10;61.60;;;;;;5128552;27;20195;-51
2022/03/19 13:56:56;;;;;;;8.00;4.00;;;12.20;61.70;;;;;;5126927;27;20257;-48
2022/03/19 13:59:42;;;;;;;8.67;3.23;;;12.90;60.60;;;;;;5124589;27;20245;-53
2022/03/19 14:02:26;;;;;;;6.13;3.73;;;12.40;60.50;;;;;;5128271;27;20280;-54
2022/03/19 14:05:11;;;;;;;3.73;3.30;;;12.20;61.30;;;;;;5126806;27;20268;-55
2022/03/19 14:07:58;;;;;;;4.60;3.00;;;12.90;59.70;;;;;;5125136;27;20203;-54
2022/03/19 14:10:46;;;;;;;4.77;3.20;;;12.20;59.30;;;;;;5128776;27;20230;-56
2022/03/19 14:13:41;;;;;;;4.90;2.70;;;12.50;60.20;;;;;;5125332;27;20226;-54
2022/03/19 14:16:26;;;;;;;5.33;3.03;;;13.60;58.30;;;;;;5124556;27;20241;-53
2022/03/19 14:19:10;;;;;;;3.87;2.77;;;14.90;55.70;;;;;;5128165;27;20191;-55
2022/03/19 14:22:00;;;;;;;4.63;3.07;;;16.30;54.50;;;;;;5124070;27;20208;-59
2022/03/19 14:24:45;;;;;;;4.40;3.25;;;17.90;52.50;;;;;;5126714;27;20199;-54
2022/03/19 14:27:29;;;;;;;5.72;3.20;;;18.00;50.10;;;;;;5127882;27;20206;-49
2022/03/19 14:30:14;;;;;;;7.15;3.90;;;18.90;50.00;;;;;;5123066;27;20241;-51
2022/03/19 14:33:00;;;;;;;4.63;3.50;;;19.20;48.30;;;;;;5127637;27;20603;-54
2022/03/19 14:35:54;;;;;;;4.70;3.92;;;17.90;48.70;;;;;;5127504;27;20196;-55
2022/03/19 14:38:44;;;;;;;4.90;4.03;;;17.30;48.60;;;;;;5123183;27;20215;-57
2022/03/19 14:41:28;;;;;;;6.90;4.17;;;16.60;48.90;;;;;;5128175;27;20211;-60
2022/03/19 14:44:13;;;;;;;6.43;4.03;;;15.50;50.60;;;;;;5126454;27;20199;-57